createdAt,value
2023-05-12T03:02:23.196Z,9.13
2023-05-12T03:04:53.667Z,9.12
2023-05-12T03:07:22.874Z,9.12
2023-05-12T03:09:52.034Z,9.11
2023-05-12T03:12:21.141Z,9.10
2023-05-12T03:14:50.226Z,9.11
2023-05-12T03:17:18.889Z,9.12
2023-05-12T03:19:47.711Z,9.13
2023-05-12T03:22:18.335Z,9.13
2023-05-12T03:24:47.892Z,9.12
2023-05-12T03:27:17.034Z,9.13
2023-05-12T03:29:46.493Z,9.18
2023-05-12T03:32:14.798Z,9.20
2023-05-12T03:34:44.035Z,9.24
2023-05-12T03:37:13.639Z,9.27
2023-05-12T03:39:42.628Z,9.32
2023-05-12T03:42:12.634Z,9.38
2023-05-12T03:44:43.329Z,9.44
2023-05-12T03:47:14.394Z,9.51
2023-05-12T03:49:43.765Z,9.61
2023-05-12T03:52:13.474Z,9.70
2023-05-12T03:54:41.713Z,9.77
2023-05-12T03:57:10.877Z,9.84
2023-05-12T03:59:39.616Z,9.90
2023-05-12T04:02:12.619Z,9.96
2023-05-12T04:04:41.998Z,9.99
2023-05-12T04:07:11.046Z,10.04
2023-05-12T04:09:40.092Z,10.13
2023-05-12T04:12:08.981Z,10.39
2023-05-12T04:14:42.749Z,11.08
2023-05-12T04:17:13.025Z,12.01
2023-05-12T04:19:42.344Z,12.66
2023-05-12T04:22:11.107Z,13.32
2023-05-12T04:24:39.626Z,14.11
2023-05-12T04:27:09.075Z,15.10
2023-05-12T04:29:38.016Z,16.19
2023-05-12T04:32:08.058Z,16.81
2023-05-12T04:34:36.708Z,17.36
2023-05-12T04:37:05.684Z,17.75
2023-05-12T04:39:34.489Z,18.19
2023-05-12T04:42:05.094Z,18.97
2023-05-12T04:44:35.236Z,19.27
2023-05-12T04:47:04.484Z,19.49
2023-05-12T04:49:33.474Z,19.82
2023-05-12T04:52:02.328Z,20.39
2023-05-12T04:54:31.592Z,21.20
2023-05-12T04:57:00.722Z,21.98
2023-05-12T04:59:30.306Z,22.69
2023-05-12T05:01:58.981Z,22.96
2023-05-12T05:04:27.337Z,23.15
2023-05-12T05:06:56.870Z,23.53
2023-05-12T05:09:26.415Z,23.53
2023-05-12T05:11:55.594Z,23.38
2023-05-12T05:14:23.851Z,23.19
2023-05-12T05:16:52.672Z,23.44
2023-05-12T05:19:30.175Z,23.62
2023-05-12T05:22:14.609Z,23.89
2023-05-12T05:24:42.924Z,24.13
2023-05-12T05:27:12.779Z,24.28
2023-05-12T05:29:41.596Z,24.39
2023-05-12T05:32:10.840Z,24.65
2023-05-12T05:34:41.237Z,25.03
2023-05-12T05:37:10.981Z,25.33
2023-05-12T05:39:40.113Z,25.57
2023-05-12T05:42:09.367Z,25.88
2023-05-12T05:44:38.495Z,26.21
2023-05-12T05:47:08.045Z,26.51
2023-05-12T05:49:37.352Z,26.91
2023-05-12T05:52:07.341Z,27.27
2023-05-12T05:54:36.692Z,27.51
2023-05-12T05:57:06.576Z,27.77
2023-05-12T05:59:35.748Z,28.03
2023-05-12T06:02:07.910Z,28.20
2023-05-12T06:04:37.091Z,28.11
2023-05-12T06:07:06.376Z,27.37
2023-05-12T06:09:35.378Z,26.60
2023-05-12T06:12:03.949Z,25.79
2023-05-12T06:14:32.326Z,24.99
2023-05-12T06:17:00.955Z,24.25
2023-05-12T06:19:29.247Z,23.52
2023-05-12T06:21:58.615Z,22.90
2023-05-12T06:24:27.417Z,22.35
2023-05-12T06:26:57.256Z,21.82
2023-05-12T06:29:25.826Z,21.41
2023-05-12T06:31:54.507Z,21.05
2023-05-12T06:34:22.946Z,20.79
2023-05-12T06:36:53.194Z,20.62
2023-05-12T06:39:24.241Z,20.44
2023-05-12T06:41:52.815Z,20.25
2023-05-12T06:44:23.044Z,20.08
2023-05-12T06:46:54.562Z,19.88
2023-05-12T06:49:23.387Z,19.73
2023-05-12T06:51:52.461Z,19.67
2023-05-12T06:54:21.276Z,19.62
2023-05-12T06:56:50.077Z,19.62
2023-05-12T06:59:20.760Z,19.61
2023-05-12T07:01:50.066Z,19.65
2023-05-12T07:04:19.295Z,19.69
2023-05-12T07:06:48.383Z,19.77
2023-05-12T07:09:19.507Z,19.81
2023-05-12T07:11:47.962Z,19.84
2023-05-12T07:14:17.107Z,19.86
2023-05-12T07:16:46.010Z,19.90
2023-05-12T07:19:14.177Z,19.92
2023-05-12T07:21:43.132Z,19.93
2023-05-12T07:24:11.527Z,19.95
2023-05-12T07:26:40.769Z,19.97
2023-05-12T07:29:13.753Z,19.96
2023-05-12T07:31:43.047Z,19.95
2023-05-12T07:34:11.670Z,19.95
2023-05-12T07:36:40.138Z,19.94
2023-05-12T07:39:08.447Z,19.93
2023-05-12T07:41:36.923Z,19.90
2023-05-12T07:44:05.974Z,19.89
2023-05-12T07:46:34.286Z,19.83
2023-05-12T07:49:03.293Z,19.81
2023-05-12T07:51:31.879Z,19.85
2023-05-12T07:54:01.499Z,19.89
2023-05-12T07:56:30.359Z,19.87
2023-05-12T07:58:59.080Z,19.86
2023-05-12T08:01:27.939Z,19.86
2023-05-12T08:03:57.265Z,19.91
2023-05-12T08:06:26.201Z,19.94
2023-05-12T08:08:56.289Z,19.96
2023-05-12T08:11:25.664Z,20.00
2023-05-12T08:13:54.849Z,20.06
2023-05-12T08:16:26.617Z,20.12
2023-05-12T08:18:56.114Z,20.16
2023-05-12T08:21:25.274Z,20.21
2023-05-12T08:23:54.288Z,20.26
2023-05-12T08:26:23.259Z,20.23
2023-05-12T08:28:52.395Z,20.22
2023-05-12T08:31:21.103Z,20.23
2023-05-12T08:33:54.098Z,20.27
2023-05-12T08:36:32.133Z,20.27
2023-05-12T08:39:01.284Z,20.27
2023-05-12T08:41:49.370Z,20.22
2023-05-12T08:44:19.629Z,20.23
2023-05-12T08:46:49.289Z,20.24
2023-05-12T08:49:21.684Z,20.21
2023-05-12T08:51:58.235Z,20.23
2023-05-12T08:54:29.208Z,20.22
2023-05-12T08:59:30.117Z,20.25
2023-05-12T09:01:59.457Z,20.30
2023-05-12T09:04:28.606Z,20.35
2023-05-12T09:06:58.587Z,20.37
2023-05-12T09:09:28.883Z,20.36
2023-05-12T09:11:58.356Z,20.36
2023-05-12T09:14:28.506Z,20.35
2023-05-12T09:17:04.683Z,20.36
2023-05-12T09:19:35.029Z,20.36
2023-05-12T09:22:03.739Z,20.38
2023-05-12T09:24:39.039Z,20.45
2023-05-12T09:27:07.958Z,20.52
2023-05-12T09:29:45.180Z,20.56
2023-05-12T09:32:34.155Z,20.48
2023-05-12T09:35:06.716Z,20.42
2023-05-12T09:37:36.176Z,20.38
2023-05-12T09:40:06.008Z,20.41
2023-05-12T09:42:35.172Z,20.43
2023-05-12T09:45:07.624Z,20.39
2023-05-12T09:47:37.105Z,20.37
2023-05-12T09:50:07.511Z,20.33
2023-05-12T09:52:37.498Z,20.30
2023-05-12T09:55:10.743Z,20.33
2023-05-12T09:57:43.364Z,20.27
2023-05-12T10:00:33.147Z,20.25
2023-05-12T10:03:10.620Z,20.26
2023-05-12T10:05:44.451Z,20.20
2023-05-12T10:08:16.639Z,20.14
2023-05-12T10:10:48.940Z,20.14
2023-05-12T10:13:18.384Z,20.16
2023-05-12T10:15:48.712Z,20.18
2023-05-12T10:18:17.668Z,20.16
2023-05-12T10:20:46.562Z,20.12
2023-05-12T10:23:15.980Z,20.09
2023-05-12T10:25:44.786Z,20.09
2023-05-12T10:28:17.040Z,20.07
2023-05-12T10:30:45.806Z,20.07
2023-05-12T10:33:16.125Z,20.12
2023-05-12T10:35:46.217Z,20.18
2023-05-12T10:38:20.082Z,20.25
2023-05-12T10:40:51.799Z,20.30
2023-05-12T10:43:24.437Z,20.35
2023-05-12T10:46:11.831Z,20.36
2023-05-12T10:48:55.363Z,20.43
2023-05-12T10:51:31.404Z,20.45
2023-05-12T10:54:01.934Z,20.46
2023-05-12T10:56:32.121Z,20.42
2023-05-12T10:59:20.467Z,20.38
2023-05-12T11:01:58.858Z,20.39
2023-05-12T11:04:43.521Z,20.46
2023-05-12T11:07:16.228Z,20.54
2023-05-12T11:09:57.435Z,20.62
2023-05-12T11:12:28.755Z,20.69
2023-05-12T11:14:59.850Z,20.72
2023-05-12T11:17:28.683Z,20.74
2023-05-12T11:19:59.490Z,20.74
2023-05-12T11:22:28.852Z,20.76
2023-05-12T11:24:58.236Z,20.80
2023-05-12T11:27:27.384Z,20.83
2023-05-12T11:29:56.698Z,20.90
2023-05-12T11:32:25.835Z,20.93
2023-05-12T11:34:54.922Z,20.88
2023-05-12T11:37:23.401Z,20.85
2023-05-12T11:39:53.488Z,20.83
2023-05-12T11:42:25.064Z,20.79
2023-05-12T11:44:56.018Z,20.79
2023-05-12T11:47:26.317Z,20.80
2023-05-12T11:49:56.029Z,20.79
2023-05-12T11:52:25.818Z,20.79
2023-05-12T11:54:58.538Z,20.78
2023-05-12T11:57:30.879Z,20.81
2023-05-12T12:00:02.239Z,20.81
2023-05-12T12:02:36.146Z,20.78
2023-05-12T12:05:08.539Z,20.80
2023-05-12T12:07:39.007Z,20.83
2023-05-12T12:10:16.290Z,20.86
2023-05-12T12:12:49.605Z,20.90
2023-05-12T12:15:18.554Z,20.94
2023-05-12T12:17:46.809Z,20.96
2023-05-12T12:20:15.352Z,20.98
2023-05-12T12:22:44.114Z,20.94
2023-05-12T12:25:12.980Z,20.93
2023-05-12T12:27:44.909Z,20.93
2023-05-12T12:30:14.566Z,20.94
2023-05-12T12:32:44.866Z,20.93
2023-05-12T12:35:14.332Z,20.98
2023-05-12T12:37:43.512Z,21.02
2023-05-12T12:40:12.566Z,21.04
2023-05-12T12:42:42.058Z,20.99
2023-05-12T12:45:10.963Z,20.95
2023-05-12T12:47:40.029Z,20.91
2023-05-12T12:50:10.654Z,20.86
2023-05-12T12:52:39.720Z,20.79
2023-05-12T12:55:09.365Z,20.74
2023-05-12T12:57:38.318Z,20.75
2023-05-12T13:00:09.161Z,20.79
2023-05-12T13:02:39.446Z,20.81
2023-05-12T13:35:05.317Z,20.90
2023-05-12T13:37:34.181Z,20.86
2023-05-12T13:40:03.046Z,20.84
2023-05-12T13:42:31.439Z,20.80
2023-05-12T13:45:00.869Z,20.75
2023-05-12T13:47:29.582Z,20.70
2023-05-12T13:49:58.657Z,20.64
2023-05-12T13:52:28.201Z,20.59
2023-05-12T13:54:57.785Z,20.55
2023-05-12T13:57:26.711Z,20.46
2023-05-12T13:59:58.552Z,20.37
2023-05-12T14:02:27.546Z,20.27
2023-05-12T14:04:56.907Z,20.20
2023-05-12T14:07:26.359Z,20.12
2023-05-12T14:09:55.273Z,20.05
2023-05-12T14:12:24.099Z,19.99
2023-05-12T14:14:53.032Z,19.94
2023-05-12T14:17:21.763Z,19.90
2023-05-12T14:19:50.669Z,19.86
2023-05-12T14:22:26.434Z,19.82
2023-05-12T14:24:56.530Z,19.79
2023-05-12T14:27:25.436Z,19.78
2023-05-12T14:29:53.648Z,19.77
2023-05-12T14:32:22.257Z,19.75
2023-05-12T14:34:50.915Z,19.71
2023-05-12T14:37:19.519Z,19.69
2023-05-12T14:39:48.244Z,19.67
2023-05-12T14:42:18.550Z,19.65
2023-05-12T14:44:46.447Z,19.63
2023-05-12T14:47:15.388Z,19.63
2023-05-12T14:49:49.080Z,19.62
2023-05-12T14:52:18.797Z,19.60
2023-05-12T14:54:47.590Z,19.58
2023-05-12T14:57:16.124Z,19.57
2023-05-12T14:59:44.182Z,19.55
2023-05-12T15:02:12.230Z,19.54
2023-05-12T15:04:40.984Z,19.53
2023-05-12T15:07:09.592Z,19.52
2023-05-12T15:09:37.787Z,19.50
2023-05-12T15:12:06.294Z,19.49
2023-05-12T15:14:35.095Z,19.49
2023-05-12T15:17:03.804Z,19.48
2023-05-12T15:19:32.595Z,19.43
2023-05-12T15:22:00.949Z,19.36
2023-05-12T15:24:29.730Z,19.29
2023-05-12T15:26:58.542Z,19.23
2023-05-12T15:29:27.136Z,19.19
2023-05-12T15:31:55.761Z,19.14
2023-05-12T15:34:24.809Z,19.10
2023-05-12T15:36:53.411Z,19.06
2023-05-12T15:39:23.516Z,19.02
2023-05-12T15:41:52.309Z,18.99
2023-05-12T15:44:21.364Z,18.95
2023-05-12T15:46:50.240Z,18.92
2023-05-12T15:49:19.259Z,18.90
2023-05-12T15:51:51.411Z,18.88
2023-05-12T15:54:20.468Z,18.86
2023-05-12T15:56:52.600Z,18.85
2023-05-12T15:59:21.467Z,18.82
2023-05-12T16:01:50.309Z,18.79
2023-05-12T16:04:19.581Z,18.76
2023-05-12T16:06:48.643Z,18.74
2023-05-12T16:09:17.792Z,18.71
2023-05-12T16:11:46.630Z,18.68
2023-05-12T16:14:15.847Z,18.66
2023-05-12T16:16:48.921Z,18.62
2023-05-12T16:19:18.704Z,18.59
2023-05-12T16:21:47.747Z,18.55
2023-05-12T16:24:16.611Z,18.51
2023-05-12T16:26:44.686Z,18.47
2023-05-12T16:29:14.214Z,18.41
2023-05-12T16:31:43.123Z,18.35
2023-05-12T16:34:12.315Z,18.28
2023-05-12T16:36:41.319Z,18.24
2023-05-12T16:39:10.108Z,18.17
2023-05-12T16:41:39.593Z,18.13
2023-05-12T16:44:10.919Z,18.09
2023-05-12T16:46:41.677Z,18.05
2023-05-12T16:49:10.536Z,18.01
2023-05-12T16:51:39.421Z,18.01
2023-05-12T16:54:08.360Z,17.99
2023-05-12T16:56:37.203Z,17.95
2023-05-12T16:59:06.853Z,17.90
2023-05-12T17:01:36.825Z,17.85
2023-05-12T17:04:05.756Z,17.79
2023-05-12T17:06:34.558Z,17.74
2023-05-12T17:09:03.202Z,17.68
2023-05-12T17:11:32.183Z,17.63
2023-05-12T17:14:01.567Z,17.60
2023-05-12T17:16:30.581Z,17.53
2023-05-12T17:21:31.799Z,17.37
2023-05-12T17:24:01.437Z,17.32
2023-05-12T17:26:29.660Z,17.27
2023-05-12T17:28:58.324Z,17.23
2023-05-12T17:31:27.043Z,17.19
2023-05-12T17:33:55.728Z,17.14
2023-05-12T17:36:24.494Z,17.09
2023-05-12T17:38:52.692Z,17.04
2023-05-12T17:41:21.195Z,16.98
2023-05-12T17:43:49.542Z,16.93
2023-05-12T17:46:17.866Z,16.87
2023-05-12T17:48:45.955Z,16.81
2023-05-12T17:51:14.332Z,16.75
2023-05-12T17:53:42.532Z,16.69
2023-05-12T17:56:11.633Z,16.64
2023-05-12T17:58:40.496Z,16.57
2023-05-12T18:01:08.807Z,16.51
2023-05-12T18:03:38.603Z,16.44
2023-05-12T18:06:08.990Z,16.38
2023-05-12T18:08:37.954Z,16.32
2023-05-12T18:11:06.757Z,16.26
2023-05-12T18:13:35.557Z,16.20
2023-05-12T18:16:03.924Z,16.14
2023-05-12T18:18:33.423Z,16.08
2023-05-12T18:21:02.290Z,16.02
2023-05-12T18:23:31.329Z,15.96
2023-05-12T18:26:02.321Z,15.88
2023-05-12T18:28:33.226Z,15.80
2023-05-12T18:31:09.305Z,15.72
2023-05-12T18:33:46.676Z,15.63
2023-05-12T18:36:16.251Z,15.54
2023-05-12T18:38:45.074Z,15.44
2023-05-12T18:41:13.162Z,15.34
2023-05-12T18:43:43.403Z,15.24
2023-05-12T18:46:12.864Z,15.14
2023-05-12T18:48:42.584Z,15.06
2023-05-12T18:51:12.110Z,14.99
2023-05-12T18:53:40.401Z,14.93
2023-05-12T18:56:08.558Z,14.87
2023-05-12T18:58:39.288Z,14.80
2023-05-12T19:01:07.437Z,14.73
2023-05-12T19:03:35.734Z,14.67
2023-05-12T19:06:03.826Z,14.61
2023-05-12T19:08:32.048Z,14.54
2023-05-12T19:11:00.709Z,14.48
2023-05-12T19:13:32.027Z,14.41
2023-05-12T19:16:00.151Z,14.33
2023-05-12T19:18:28.795Z,14.27
2023-05-12T19:20:57.696Z,14.19
2023-05-12T19:23:26.237Z,14.12
2023-05-12T19:25:56.153Z,14.07
2023-05-12T19:28:25.553Z,14.02
2023-05-12T19:30:55.226Z,13.97
2023-05-12T19:33:23.681Z,13.90
2023-05-12T19:35:52.847Z,13.83
2023-05-12T19:38:21.233Z,13.77
2023-05-12T19:40:49.455Z,13.69
2023-05-12T19:43:17.738Z,13.64
2023-05-12T19:45:46.139Z,13.59
2023-05-12T19:48:15.390Z,13.53
2023-05-12T19:50:43.866Z,13.49
2023-05-12T19:53:12.202Z,13.44
2023-05-12T19:55:40.516Z,13.40
2023-05-12T19:58:09.369Z,13.35
2023-05-12T20:00:39.435Z,13.29
2023-05-12T20:03:08.453Z,13.22
2023-05-12T20:05:37.878Z,13.18
2023-05-12T20:08:06.140Z,13.12
2023-05-12T20:10:34.769Z,13.08
2023-05-12T20:13:09.252Z,13.03
2023-05-12T20:15:43.594Z,12.96
2023-05-12T20:18:15.991Z,12.90
2023-05-12T20:20:45.754Z,12.84
2023-05-12T20:23:16.675Z,12.76
2023-05-12T20:25:45.721Z,12.67
2023-05-12T20:28:15.886Z,12.61
2023-05-12T20:30:45.133Z,12.55
2023-05-12T20:33:13.874Z,12.49
2023-05-12T20:35:42.853Z,12.40
2023-05-12T20:38:11.270Z,12.33
2023-05-12T20:40:41.271Z,12.26
2023-05-12T20:43:12.068Z,12.20
2023-05-12T20:45:43.253Z,12.14
2023-05-12T20:48:11.979Z,12.07
2023-05-12T20:50:41.804Z,11.98
2023-05-12T20:53:15.629Z,11.90
2023-05-12T20:55:46.011Z,11.85
2023-05-12T20:58:14.943Z,11.81
2023-05-12T21:00:43.464Z,11.77
2023-05-12T21:03:17.346Z,11.74
2023-05-12T21:05:49.661Z,11.70
2023-05-12T21:08:18.205Z,11.66
2023-05-12T21:10:46.391Z,11.61
2023-05-12T21:13:14.792Z,11.54
2023-05-12T21:15:43.116Z,11.47
2023-05-12T21:18:11.574Z,11.44
2023-05-12T21:20:40.352Z,11.41
2023-05-12T21:23:11.711Z,11.38
2023-05-12T21:25:40.549Z,11.34
2023-05-12T21:28:09.380Z,11.29
2023-05-12T21:30:38.615Z,11.26
2023-05-12T21:33:07.196Z,11.24
2023-05-12T21:35:36.292Z,11.25
2023-05-12T21:38:06.892Z,11.27
2023-05-12T21:40:35.110Z,11.27
2023-05-12T21:43:03.766Z,11.27
2023-05-12T21:45:33.003Z,11.24
2023-05-12T21:48:01.805Z,11.21
2023-05-12T21:50:29.953Z,11.21
2023-05-12T21:52:59.031Z,11.19
2023-05-12T21:55:27.914Z,11.14
2023-05-12T21:57:57.106Z,11.13
2023-05-12T22:00:26.702Z,11.12
2023-05-12T22:02:55.678Z,11.12
2023-05-12T22:05:24.690Z,11.09
2023-05-12T22:07:53.396Z,11.05
2023-05-12T22:10:22.163Z,11.04
2023-05-12T22:12:51.062Z,11.03
2023-05-12T22:15:19.920Z,11.03
2023-05-12T22:17:50.656Z,10.99
2023-05-12T22:20:19.691Z,10.94
2023-05-12T22:22:48.819Z,10.89
2023-05-12T22:25:17.578Z,10.86
2023-05-12T22:27:46.652Z,10.83
2023-05-12T22:30:15.596Z,10.80
2023-05-12T22:32:44.830Z,10.76
2023-05-12T22:35:13.665Z,10.71
2023-05-12T22:37:42.356Z,10.66
2023-05-12T22:40:10.536Z,10.62
2023-05-12T22:42:39.482Z,10.59
2023-05-12T22:45:09.116Z,10.56
2023-05-12T22:47:38.221Z,10.54
2023-05-12T22:50:07.581Z,10.51
2023-05-12T22:52:36.639Z,10.46
2023-05-12T22:55:05.688Z,10.43
2023-05-12T22:57:34.541Z,10.39
2023-05-12T23:00:04.374Z,10.35
2023-05-12T23:02:32.976Z,10.33
2023-05-12T23:05:01.992Z,10.30
2023-05-12T23:07:31.410Z,10.29
2023-05-12T23:10:00.321Z,10.27
2023-05-12T23:12:29.156Z,10.27
2023-05-12T23:14:58.326Z,10.26
2023-05-12T23:17:27.562Z,10.24
2023-05-12T23:19:57.058Z,10.21
2023-05-12T23:22:25.192Z,10.21
2023-05-12T23:24:55.719Z,10.21
2023-05-12T23:27:25.414Z,10.21
2023-05-12T23:29:54.778Z,10.21
2023-05-12T23:32:24.361Z,10.21
2023-05-12T23:34:53.350Z,10.22
2023-05-12T23:37:22.583Z,10.24
2023-05-12T23:39:51.386Z,10.25
2023-05-12T23:42:20.222Z,10.25
2023-05-12T23:44:49.000Z,10.24
2023-05-12T23:47:18.258Z,10.21
2023-05-12T23:49:47.425Z,10.19
2023-05-12T23:52:16.357Z,10.20
2023-05-12T23:54:45.336Z,10.21
2023-05-12T23:57:14.322Z,10.23
2023-05-12T23:59:43.112Z,10.22
